N80EM EGPB-EGNT
Flight info
| Callsign | N80EM |
|---|---|
| Flight time | 0h 54m |
| Altitude | 24000 |
| Route | WAFIL DCT PETOX DCT ADN/N0478F230 DCT NATEB |
| Aircraft | C750/M-SBDE3FGHRWXY/S |
Departure
| Time | 2026-05-04 11:01 |
|---|---|
| Airport | Sumburgh Airport (EGPB) |
Arrival
| Time | 2026-05-04 11:55 |
|---|---|
| Airport | Newcastle International Airport (EGNT) |
| Time | Latitude | Longitude | Altitude | Speed | Heading |
|---|---|---|---|---|---|
| 2026-05-04 10:51 | 59.87734 | -1.28715 | 30 ft | 0 kts | 143° |
| 2026-05-04 10:56 | 59.87724 | -1.28700 | 30 ft | 7 kts | 143° |
| 2026-05-04 10:56 | 59.87696 | -1.28672 | 30 ft | 1 kts | 233° |
| 2026-05-04 10:57 | 59.87660 | -1.28815 | 30 ft | 15 kts | 233° |
| 2026-05-04 10:57 | 59.87619 | -1.28972 | 30 ft | 11 kts | 294° |
| 2026-05-04 10:57 | 59.87721 | -1.29134 | 30 ft | 22 kts | 323° |
| 2026-05-04 10:57 | 59.87841 | -1.29307 | 30 ft | 20 kts | 322° |
| 2026-05-04 10:58 | 59.87916 | -1.29465 | 30 ft | 11 kts | 259° |
| 2026-05-04 10:58 | 59.87877 | -1.29599 | 29 ft | 10 kts | 316° |
| 2026-05-04 10:58 | 59.87995 | -1.29767 | 29 ft | 34 kts | 323° |
| 2026-05-04 10:58 | 59.88107 | -1.29932 | 31 ft | 0 kts | 322° |
| 2026-05-04 10:59 | 59.88108 | -1.29933 | 31 ft | 1 kts | 323° |
| 2026-05-04 10:59 | 59.88120 | -1.29964 | 31 ft | 1 kts | 208° |
| 2026-05-04 10:59 | 59.88116 | -1.29955 | 31 ft | 1 kts | 139° |
| 2026-05-04 10:59 | 59.87943 | -1.29688 | 29 ft | 81 kts | 141° |
| 2026-05-04 11:00 | 59.87524 | -1.29068 | 40 ft | 137 kts | 139° |
| 2026-05-04 11:01 | 59.79378 | -1.30732 | 4386 ft | 227 kts | 192° |
| 2026-05-04 11:02 | 59.77725 | -1.31134 | 4981 ft | 252 kts | 192° |
| 2026-05-04 11:02 | 59.75904 | -1.31570 | 5549 ft | 273 kts | 192° |
| 2026-05-04 11:05 | 59.44861 | -1.39035 | 15680 ft | 373 kts | 195° |
| 2026-05-04 11:06 | 59.42271 | -1.39654 | 16328 ft | 377 kts | 195° |
| 2026-05-04 11:06 | 59.39653 | -1.40275 | 16999 ft | 381 kts | 195° |
| 2026-05-04 11:06 | 59.37002 | -1.40906 | 17675 ft | 386 kts | 195° |
| 2026-05-04 11:06 | 59.34323 | -1.41543 | 18345 ft | 391 kts | 195° |
| 2026-05-04 11:08 | 59.14755 | -1.46156 | 22687 ft | 420 kts | 195° |
| 2026-05-04 11:10 | 58.93328 | -1.51138 | 24008 ft | 486 kts | 193° |
| 2026-05-04 11:12 | 58.69318 | -1.56660 | 24200 ft | 499 kts | 193° |
| 2026-05-04 11:12 | 58.65863 | -1.57446 | 24385 ft | 501 kts | 193° |
| 2026-05-04 11:12 | 58.62397 | -1.58237 | 24530 ft | 502 kts | 193° |
| 2026-05-04 11:12 | 58.58938 | -1.59020 | 24957 ft | 495 kts | 193° |
| 2026-05-04 11:13 | 58.55531 | -1.59782 | 25299 ft | 494 kts | 193° |
| 2026-05-04 11:13 | 58.52106 | -1.60569 | 25538 ft | 496 kts | 194° |
| 2026-05-04 11:13 | 58.48673 | -1.61352 | 25859 ft | 496 kts | 193° |
| 2026-05-04 11:13 | 58.45247 | -1.62115 | 26001 ft | 498 kts | 193° |
| 2026-05-04 11:14 | 58.41802 | -1.62888 | 26010 ft | 499 kts | 193° |
| 2026-05-04 11:14 | 58.38351 | -1.63667 | 26007 ft | 500 kts | 193° |
| 2026-05-04 11:14 | 58.34896 | -1.64441 | 26018 ft | 500 kts | 193° |
| 2026-05-04 11:16 | 58.10347 | -1.69897 | 26033 ft | 515 kts | 192° |
| 2026-05-04 11:16 | 58.06788 | -1.70681 | 26033 ft | 515 kts | 192° |
| 2026-05-04 11:16 | 58.03232 | -1.71461 | 26032 ft | 515 kts | 192° |
| 2026-05-04 11:17 | 57.99677 | -1.72242 | 26041 ft | 515 kts | 192° |
| 2026-05-04 11:17 | 57.96119 | -1.73023 | 26040 ft | 515 kts | 192° |
| 2026-05-04 11:19 | 57.71205 | -1.78439 | 26041 ft | 515 kts | 192° |
| 2026-05-04 11:19 | 57.67641 | -1.79207 | 26043 ft | 515 kts | 192° |
| 2026-05-04 11:19 | 57.64091 | -1.80003 | 26038 ft | 512 kts | 193° |
| 2026-05-04 11:19 | 57.60639 | -1.81445 | 26038 ft | 506 kts | 201° |
| 2026-05-04 11:20 | 57.57355 | -1.83682 | 26046 ft | 498 kts | 208° |
| 2026-05-04 11:20 | 57.54314 | -1.86607 | 26043 ft | 489 kts | 216° |
| 2026-05-04 11:20 | 57.51524 | -1.90172 | 26047 ft | 485 kts | 223° |
| 2026-05-04 11:20 | 57.49007 | -1.94311 | 26043 ft | 482 kts | 229° |
| 2026-05-04 11:22 | 57.30499 | -2.21236 | 26035 ft | 506 kts | 203° |
| 2026-05-04 11:22 | 57.27076 | -2.22932 | 26031 ft | 513 kts | 195° |
| 2026-05-04 11:23 | 57.23522 | -2.23760 | 25986 ft | 518 kts | 187° |
| 2026-05-04 11:23 | 57.19904 | -2.23685 | 25981 ft | 523 kts | 179° |
| 2026-05-04 11:24 | 56.98228 | -2.18070 | 25989 ft | 524 kts | 174° |
| 2026-05-04 11:25 | 56.94620 | -2.17133 | 25992 ft | 523 kts | 175° |
| 2026-05-04 11:25 | 56.91015 | -2.16203 | 26000 ft | 523 kts | 175° |
| 2026-05-04 11:25 | 56.87461 | -2.15278 | 25999 ft | 523 kts | 174° |
| 2026-05-04 11:26 | 56.80266 | -2.13407 | 26005 ft | 521 kts | 174° |
| 2026-05-04 11:27 | 56.55162 | -2.06960 | 25994 ft | 520 kts | 174° |
| 2026-05-04 11:28 | 56.51603 | -2.06052 | 26001 ft | 513 kts | 174° |
| 2026-05-04 11:28 | 56.48172 | -2.05172 | 24964 ft | 487 kts | 174° |
| 2026-05-04 11:28 | 56.44877 | -2.04335 | 23974 ft | 467 kts | 174° |
| 2026-05-04 11:28 | 56.41753 | -2.03545 | 23306 ft | 439 kts | 174° |
| 2026-05-04 11:29 | 56.38793 | -2.02794 | 22179 ft | 423 kts | 174° |
| 2026-05-04 11:29 | 56.35896 | -2.02065 | 20858 ft | 417 kts | 174° |
| 2026-05-04 11:29 | 56.33049 | -2.01348 | 19668 ft | 409 kts | 175° |
| 2026-05-04 11:29 | 56.30260 | -2.00643 | 18507 ft | 401 kts | 175° |
| 2026-05-04 11:31 | 56.12152 | -1.96109 | 11935 ft | 366 kts | 175° |
| 2026-05-04 11:33 | 55.92574 | -1.91251 | 11929 ft | 419 kts | 174° |
| 2026-05-04 11:33 | 55.89726 | -1.90549 | 11928 ft | 419 kts | 174° |
| 2026-05-04 11:33 | 55.86840 | -1.89838 | 11927 ft | 419 kts | 174° |
| 2026-05-04 11:34 | 55.83955 | -1.89128 | 11927 ft | 419 kts | 174° |
| 2026-05-04 11:34 | 55.81067 | -1.88420 | 11926 ft | 419 kts | 174° |
| 2026-05-04 11:34 | 55.78181 | -1.87711 | 11926 ft | 419 kts | 174° |
| 2026-05-04 11:34 | 55.75295 | -1.87005 | 11920 ft | 419 kts | 174° |
| 2026-05-04 11:35 | 55.72411 | -1.86299 | 11916 ft | 418 kts | 174° |
| 2026-05-04 11:35 | 55.69525 | -1.85595 | 11916 ft | 418 kts | 174° |
| 2026-05-04 11:35 | 55.66643 | -1.84893 | 11917 ft | 418 kts | 174° |
| 2026-05-04 11:35 | 55.63756 | -1.84190 | 11916 ft | 419 kts | 174° |
| 2026-05-04 11:36 | 55.60871 | -1.83489 | 11916 ft | 418 kts | 174° |
| 2026-05-04 11:36 | 55.57988 | -1.82788 | 11915 ft | 419 kts | 174° |
| 2026-05-04 11:36 | 55.55104 | -1.82090 | 11917 ft | 419 kts | 174° |
| 2026-05-04 11:36 | 55.52219 | -1.81392 | 11915 ft | 418 kts | 174° |
| 2026-05-04 11:37 | 55.49333 | -1.80695 | 11917 ft | 419 kts | 174° |
| 2026-05-04 11:37 | 55.46450 | -1.79999 | 11917 ft | 418 kts | 174° |
| 2026-05-04 11:37 | 55.43679 | -1.79326 | 11427 ft | 385 kts | 174° |
| 2026-05-04 11:37 | 55.41116 | -1.78703 | 10807 ft | 358 kts | 174° |
| 2026-05-04 11:38 | 55.38738 | -1.78136 | 10403 ft | 332 kts | 174° |
| 2026-05-04 11:38 | 55.36570 | -1.77347 | 10063 ft | 310 kts | 160° |
| 2026-05-04 11:38 | 55.34758 | -1.75507 | 9644 ft | 295 kts | 147° |
| 2026-05-04 11:38 | 55.33096 | -1.73407 | 8874 ft | 294 kts | 145° |
| 2026-05-04 11:39 | 55.31472 | -1.71282 | 8210 ft | 289 kts | 145° |
| 2026-05-04 11:39 | 55.29876 | -1.69178 | 7550 ft | 285 kts | 144° |
| 2026-05-04 11:40 | 55.20826 | -1.57177 | 4240 ft | 240 kts | 145° |
| 2026-05-04 11:41 | 55.19537 | -1.55453 | 3723 ft | 232 kts | 145° |
| 2026-05-04 11:41 | 55.18232 | -1.53716 | 3062 ft | 237 kts | 145° |
| 2026-05-04 11:41 | 55.16977 | -1.52051 | 3006 ft | 219 kts | 145° |
| 2026-05-04 11:41 | 55.15815 | -1.50488 | 3001 ft | 202 kts | 145° |
| 2026-05-04 11:42 | 55.14712 | -1.48990 | 3007 ft | 203 kts | 145° |
| 2026-05-04 11:42 | 55.13586 | -1.47455 | 3009 ft | 206 kts | 145° |
| 2026-05-04 11:42 | 55.12445 | -1.45914 | 3006 ft | 207 kts | 146° |
| 2026-05-04 11:42 | 55.11177 | -1.44767 | 3013 ft | 205 kts | 159° |
| 2026-05-04 11:43 | 55.09836 | -1.43961 | 2964 ft | 204 kts | 174° |
| 2026-05-04 11:43 | 55.08546 | -1.44642 | 2928 ft | 197 kts | 220° |
| 2026-05-04 11:43 | 55.07976 | -1.46736 | 2935 ft | 198 kts | 266° |
| 2026-05-04 11:43 | 55.08474 | -1.48940 | 2995 ft | 199 kts | 306° |
| 2026-05-04 11:44 | 55.08914 | -1.51171 | 3019 ft | 202 kts | 265° |
| 2026-05-04 11:44 | 55.08306 | -1.53188 | 2993 ft | 176 kts | 227° |
| 2026-05-04 11:44 | 55.07611 | -1.54741 | 2837 ft | 156 kts | 240° |
| 2026-05-04 11:44 | 55.07198 | -1.56360 | 2453 ft | 136 kts | 246° |
| 2026-05-04 11:45 | 55.06812 | -1.57773 | 2112 ft | 124 kts | 243° |
| 2026-05-04 11:45 | 55.06439 | -1.59100 | 1734 ft | 120 kts | 243° |
| 2026-05-04 11:45 | 55.06091 | -1.60390 | 1389 ft | 117 kts | 243° |
| 2026-05-04 11:45 | 55.05757 | -1.61670 | 1076 ft | 116 kts | 241° |
| 2026-05-04 11:46 | 55.05408 | -1.62945 | 861 ft | 116 kts | 241° |
| 2026-05-04 11:46 | 55.05049 | -1.64224 | 686 ft | 117 kts | 244° |
| 2026-05-04 11:46 | 55.04716 | -1.65519 | 504 ft | 120 kts | 244° |
| 2026-05-04 11:46 | 55.04364 | -1.66829 | 331 ft | 118 kts | 244° |
| 2026-05-04 11:47 | 55.04030 | -1.68085 | 245 ft | 105 kts | 243° |
| 2026-05-04 11:47 | 55.03737 | -1.69219 | 306 ft | 98 kts | 244° |
| 2026-05-04 11:47 | 55.03441 | -1.70343 | 584 ft | 115 kts | 242° |
| 2026-05-04 11:47 | 55.03031 | -1.71718 | 1101 ft | 140 kts | 242° |
| 2026-05-04 11:48 | 55.02434 | -1.73135 | 1750 ft | 155 kts | 214° |
| 2026-05-04 11:48 | 55.01334 | -1.73156 | 2427 ft | 173 kts | 160° |
| 2026-05-04 11:48 | 55.00351 | -1.71968 | 3300 ft | 178 kts | 133° |
| 2026-05-04 11:48 | 54.99768 | -1.70108 | 4012 ft | 160 kts | 114° |
| 2026-05-04 11:49 | 54.99661 | -1.68236 | 3819 ft | 162 kts | 89° |
| 2026-05-04 11:49 | 54.99735 | -1.66120 | 3209 ft | 193 kts | 79° |
| 2026-05-04 11:49 | 55.00296 | -1.63954 | 3017 ft | 197 kts | 59° |
| 2026-05-04 11:49 | 55.01021 | -1.61734 | 3031 ft | 215 kts | 60° |
| 2026-05-04 11:50 | 55.01762 | -1.59479 | 3022 ft | 217 kts | 60° |
| 2026-05-04 11:50 | 55.02264 | -1.57952 | 3027 ft | 215 kts | 60° |
| 2026-05-04 11:50 | 55.03258 | -1.54919 | 3020 ft | 216 kts | 60° |
| 2026-05-04 11:50 | 55.03753 | -1.53407 | 3010 ft | 213 kts | 59° |
| 2026-05-04 11:51 | 55.04483 | -1.51161 | 2435 ft | 217 kts | 60° |
| 2026-05-04 11:51 | 55.05324 | -1.48898 | 1949 ft | 218 kts | 46° |
| 2026-05-04 11:51 | 55.06644 | -1.47922 | 1865 ft | 205 kts | 359° |
| 2026-05-04 11:51 | 55.07969 | -1.48578 | 1951 ft | 189 kts | 334° |
| 2026-05-04 11:52 | 55.09063 | -1.49456 | 1964 ft | 159 kts | 320° |
| 2026-05-04 11:52 | 55.09474 | -1.51100 | 1758 ft | 151 kts | 260° |
| 2026-05-04 11:52 | 55.08828 | -1.52385 | 1748 ft | 151 kts | 202° |
| 2026-05-04 11:52 | 55.07848 | -1.52893 | 1834 ft | 150 kts | 216° |
| 2026-05-04 11:53 | 55.07463 | -1.54494 | 1874 ft | 150 kts | 263° |
| 2026-05-04 11:53 | 55.07151 | -1.56255 | 1742 ft | 153 kts | 244° |
| 2026-05-04 11:53 | 55.06715 | -1.57933 | 1514 ft | 154 kts | 244° |
| 2026-05-04 11:53 | 55.06299 | -1.59515 | 1297 ft | 130 kts | 244° |
| 2026-05-04 11:55 | 55.03933 | -1.68443 | 244 ft | 91 kts | 245° |
| 2026-05-04 11:55 | 55.03755 | -1.69121 | 250 ft | 37 kts | 245° |
| 2026-05-04 11:56 | 55.03653 | -1.69272 | 252 ft | 15 kts | 155° |
| 2026-05-04 11:56 | 55.03590 | -1.69221 | 247 ft | 9 kts | 154° |
| 2026-05-04 11:56 | 55.03521 | -1.69175 | 245 ft | 10 kts | 184° |
| 2026-05-04 11:56 | 55.03490 | -1.69237 | 245 ft | 6 kts | 245° |
| 2026-05-04 11:57 | 55.03486 | -1.69249 | 245 ft | 0 kts | 244° |